Norias, Texas
Current Conditions -  °F | °C
As of 1:55 AM on Tuesday 21 Oct 2014 (Local Time) from KBKS Reporting Station
Clear Clear  
Wind Chill: 69°   Ceiling: Unl
Heat Index: 69°   Visibility: 10mi
Dew Point: 67°   Wind: 0mph
Humidity: 95%   Direction: NA
Pressure: 29.96"   Gusts: NA
Location:  26.8954°N, 97.7184°W
Report Text: KBKS 210655Z AUTO 00000KT 10SM CLR 21/20 A2996 RMK AO1 T02050197
Loading
Personal Weather Stations






























Interactive Weather Map
Tropical Storm Tracking
New forecast layout! Learn more

10-Day Weather Forecast

Advertisements
Track Severe Weather on mobile